sensor_id;sensor_type;location;lat;lon;timestamp;P1;durP1;ratioP1;P2;durP2;ratioP2
40501;SDS011;29631;49.168;9.848;2022-08-07T00:01:31;3.63;;;1.10;;
40501;SDS011;29631;49.168;9.848;2022-08-07T00:03:56;11.55;;;1.17;;
40501;SDS011;29631;49.168;9.848;2022-08-07T00:06:22;5.75;;;0.90;;
40501;SDS011;29631;49.168;9.848;2022-08-07T00:08:48;1.02;;;0.85;;
40501;SDS011;29631;49.168;9.848;2022-08-07T00:11:14;1.17;;;0.70;;
40501;SDS011;29631;49.168;9.848;2022-08-07T00:13:39;0.75;;;0.75;;
40501;SDS011;29631;49.168;9.848;2022-08-07T00:16:08;1.08;;;0.90;;
40501;SDS011;29631;49.168;9.848;2022-08-07T00:18:34;2.05;;;0.65;;
40501;SDS011;29631;49.168;9.848;2022-08-07T00:21:01;1.05;;;0.70;;
40501;SDS011;29631;49.168;9.848;2022-08-07T00:23:30;0.73;;;0.73;;
40501;SDS011;29631;49.168;9.848;2022-08-07T00:25:57;1.17;;;0.80;;
40501;SDS011;29631;49.168;9.848;2022-08-07T00:28:25;0.98;;;0.82;;
40501;SDS011;29631;49.168;9.848;2022-08-07T00:30:51;0.80;;;0.80;;
40501;SDS011;29631;49.168;9.848;2022-08-07T00:33:16;1.13;;;0.68;;
40501;SDS011;29631;49.168;9.848;2022-08-07T00:35:42;3.20;;;0.93;;
40501;SDS011;29631;49.168;9.848;2022-08-07T00:38:08;0.63;;;0.60;;
40501;SDS011;29631;49.168;9.848;2022-08-07T00:40:33;0.60;;;0.60;;
40501;SDS011;29631;49.168;9.848;2022-08-07T00:43:01;0.63;;;0.63;;
40501;SDS011;29631;49.168;9.848;2022-08-07T00:45:27;0.85;;;0.85;;
40501;SDS011;29631;49.168;9.848;2022-08-07T00:47:53;1.27;;;0.70;;
40501;SDS011;29631;49.168;9.848;2022-08-07T00:50:18;0.82;;;0.82;;
40501;SDS011;29631;49.168;9.848;2022-08-07T00:52:44;0.68;;;0.68;;
40501;SDS011;29631;49.168;9.848;2022-08-07T00:55:10;1.98;;;0.77;;
40501;SDS011;29631;49.168;9.848;2022-08-07T00:57:36;1.65;;;0.85;;
40501;SDS011;29631;49.168;9.848;2022-08-07T01:00:03;0.60;;;0.60;;
40501;SDS011;29631;49.168;9.848;2022-08-07T01:02:31;1.38;;;0.75;;
40501;SDS011;29631;49.168;9.848;2022-08-07T01:04:57;0.80;;;0.80;;
40501;SDS011;29631;49.168;9.848;2022-08-07T01:07:24;1.05;;;0.65;;
40501;SDS011;29631;49.168;9.848;2022-08-07T01:09:52;0.70;;;0.70;;
40501;SDS011;29631;49.168;9.848;2022-08-07T01:12:18;0.80;;;0.80;;
40501;SDS011;29631;49.168;9.848;2022-08-07T01:14:43;0.90;;;0.90;;
40501;SDS011;29631;49.168;9.848;2022-08-07T01:17:10;1.73;;;0.70;;
40501;SDS011;29631;49.168;9.848;2022-08-07T01:19:37;0.82;;;0.82;;
40501;SDS011;29631;49.168;9.848;2022-08-07T01:22:03;0.70;;;0.70;;
40501;SDS011;29631;49.168;9.848;2022-08-07T01:24:30;3.25;;;0.77;;
40501;SDS011;29631;49.168;9.848;2022-08-07T01:26:56;1.85;;;0.73;;
40501;SDS011;29631;49.168;9.848;2022-08-07T01:29:25;2.25;;;1.27;;
40501;SDS011;29631;49.168;9.848;2022-08-07T01:31:52;2.45;;;1.40;;
40501;SDS011;29631;49.168;9.848;2022-08-07T01:34:18;2.67;;;1.45;;
40501;SDS011;29631;49.168;9.848;2022-08-07T01:36:45;2.95;;;1.23;;
40501;SDS011;29631;49.168;9.848;2022-08-07T01:39:13;1.60;;;1.50;;
40501;SDS011;29631;49.168;9.848;2022-08-07T01:41:39;1.92;;;1.23;;
40501;SDS011;29631;49.168;9.848;2022-08-07T01:44:07;1.00;;;1.00;;
40501;SDS011;29631;49.168;9.848;2022-08-07T01:46:35;0.80;;;0.80;;
40501;SDS011;29631;49.168;9.848;2022-08-07T01:49:02;1.05;;;0.77;;
40501;SDS011;29631;49.168;9.848;2022-08-07T01:51:27;1.38;;;0.88;;
40501;SDS011;29631;49.168;9.848;2022-08-07T01:53:56;0.73;;;0.73;;
40501;SDS011;29631;49.168;9.848;2022-08-07T01:56:28;0.80;;;0.80;;
40501;SDS011;29631;49.168;9.848;2022-08-07T01:59:23;0.77;;;0.77;;
40501;SDS011;29631;49.168;9.848;2022-08-07T02:02:18;0.80;;;0.80;;
40501;SDS011;29631;49.168;9.848;2022-08-07T02:04:58;0.73;;;0.73;;
40501;SDS011;29631;49.168;9.848;2022-08-07T02:07:34;0.70;;;0.70;;
40501;SDS011;29631;49.168;9.848;2022-08-07T02:10:06;0.60;;;0.60;;
40501;SDS011;29631;49.168;9.848;2022-08-07T02:12:35;0.75;;;0.75;;
40501;SDS011;29631;49.168;9.848;2022-08-07T02:15:05;1.33;;;0.77;;
40501;SDS011;29631;49.168;9.848;2022-08-07T02:17:32;1.23;;;0.70;;
40501;SDS011;29631;49.168;9.848;2022-08-07T02:19:59;0.60;;;0.60;;
40501;SDS011;29631;49.168;9.848;2022-08-07T02:22:26;1.50;;;0.68;;
40501;SDS011;29631;49.168;9.848;2022-08-07T02:24:55;0.60;;;0.60;;
40501;SDS011;29631;49.168;9.848;2022-08-07T02:27:23;0.70;;;0.70;;
40501;SDS011;29631;49.168;9.848;2022-08-07T02:29:51;1.30;;;0.70;;
40501;SDS011;29631;49.168;9.848;2022-08-07T02:32:18;0.68;;;0.68;;
40501;SDS011;29631;49.168;9.848;2022-08-07T02:34:46;0.57;;;0.57;;
40501;SDS011;29631;49.168;9.848;2022-08-07T02:37:13;0.63;;;0.63;;
40501;SDS011;29631;49.168;9.848;2022-08-07T02:39:42;0.65;;;0.65;;
40501;SDS011;29631;49.168;9.848;2022-08-07T02:42:10;0.73;;;0.73;;
40501;SDS011;29631;49.168;9.848;2022-08-07T02:44:37;0.70;;;0.70;;
40501;SDS011;29631;49.168;9.848;2022-08-07T02:47:07;0.60;;;0.60;;
40501;SDS011;29631;49.168;9.848;2022-08-07T02:49:35;0.70;;;0.70;;
40501;SDS011;29631;49.168;9.848;2022-08-07T02:52:02;0.93;;;0.75;;
40501;SDS011;29631;49.168;9.848;2022-08-07T02:54:32;0.80;;;0.80;;
40501;SDS011;29631;49.168;9.848;2022-08-07T02:57:01;0.70;;;0.70;;
40501;SDS011;29631;49.168;9.848;2022-08-07T02:59:28;2.15;;;0.80;;
40501;SDS011;29631;49.168;9.848;2022-08-07T03:01:57;0.70;;;0.70;;
40501;SDS011;29631;49.168;9.848;2022-08-07T03:04:25;0.60;;;0.60;;
40501;SDS011;29631;49.168;9.848;2022-08-07T03:06:52;0.80;;;0.80;;
40501;SDS011;29631;49.168;9.848;2022-08-07T03:09:18;0.70;;;0.70;;
40501;SDS011;29631;49.168;9.848;2022-08-07T03:11:45;1.15;;;0.60;;
40501;SDS011;29631;49.168;9.848;2022-08-07T03:14:12;0.55;;;0.55;;
40501;SDS011;29631;49.168;9.848;2022-08-07T03:16:39;0.57;;;0.57;;
40501;SDS011;29631;49.168;9.848;2022-08-07T03:19:05;0.90;;;0.90;;
40501;SDS011;29631;49.168;9.848;2022-08-07T03:21:33;0.50;;;0.50;;
40501;SDS011;29631;49.168;9.848;2022-08-07T03:23:59;0.88;;;0.88;;
40501;SDS011;29631;49.168;9.848;2022-08-07T03:26:27;0.80;;;0.80;;
40501;SDS011;29631;49.168;9.848;2022-08-07T03:28:57;0.63;;;0.63;;
40501;SDS011;29631;49.168;9.848;2022-08-07T03:31:26;0.80;;;0.80;;
40501;SDS011;29631;49.168;9.848;2022-08-07T03:33:59;0.60;;;0.60;;
40501;SDS011;29631;49.168;9.848;2022-08-07T03:36:27;0.90;;;0.90;;
40501;SDS011;29631;49.168;9.848;2022-08-07T03:38:56;0.77;;;0.77;;
40501;SDS011;29631;49.168;9.848;2022-08-07T03:41:27;0.70;;;0.70;;
40501;SDS011;29631;49.168;9.848;2022-08-07T03:43:54;0.80;;;0.80;;
40501;SDS011;29631;49.168;9.848;2022-08-07T03:46:21;0.70;;;0.70;;
40501;SDS011;29631;49.168;9.848;2022-08-07T03:48:49;0.85;;;0.63;;
40501;SDS011;29631;49.168;9.848;2022-08-07T03:51:15;1.05;;;0.90;;
40501;SDS011;29631;49.168;9.848;2022-08-07T03:53:44;0.88;;;0.70;;
40501;SDS011;29631;49.168;9.848;2022-08-07T03:56:10;0.90;;;0.90;;
40501;SDS011;29631;49.168;9.848;2022-08-07T03:58:38;0.88;;;0.80;;
40501;SDS011;29631;49.168;9.848;2022-08-07T04:01:04;0.70;;;0.70;;
40501;SDS011;29631;49.168;9.848;2022-08-07T04:03:32;0.80;;;0.80;;
40501;SDS011;29631;49.168;9.848;2022-08-07T04:05:58;0.70;;;0.70;;
40501;SDS011;29631;49.168;9.848;2022-08-07T04:08:24;1.08;;;0.77;;
40501;SDS011;29631;49.168;9.848;2022-08-07T04:10:51;0.88;;;0.88;;
40501;SDS011;29631;49.168;9.848;2022-08-07T04:13:17;1.33;;;0.82;;
40501;SDS011;29631;49.168;9.848;2022-08-07T04:15:45;0.80;;;0.80;;
40501;SDS011;29631;49.168;9.848;2022-08-07T04:18:12;1.15;;;0.70;;
40501;SDS011;29631;49.168;9.848;2022-08-07T04:20:39;0.80;;;0.80;;
40501;SDS011;29631;49.168;9.848;2022-08-07T04:23:06;0.80;;;0.80;;
40501;SDS011;29631;49.168;9.848;2022-08-07T04:25:34;0.80;;;0.80;;
40501;SDS011;29631;49.168;9.848;2022-08-07T04:28:03;2.30;;;0.90;;
40501;SDS011;29631;49.168;9.848;2022-08-07T04:30:31;0.70;;;0.70;;
40501;SDS011;29631;49.168;9.848;2022-08-07T04:32:59;1.10;;;0.93;;
40501;SDS011;29631;49.168;9.848;2022-08-07T04:35:29;1.00;;;0.90;;
40501;SDS011;29631;49.168;9.848;2022-08-07T04:37:55;0.95;;;0.95;;
40501;SDS011;29631;49.168;9.848;2022-08-07T04:40:21;1.48;;;1.00;;
40501;SDS011;29631;49.168;9.848;2022-08-07T04:42:47;1.02;;;0.95;;
40501;SDS011;29631;49.168;9.848;2022-08-07T04:45:13;0.90;;;0.70;;
40501;SDS011;29631;49.168;9.848;2022-08-07T04:47:45;0.80;;;0.80;;
40501;SDS011;29631;49.168;9.848;2022-08-07T04:50:36;0.90;;;0.90;;
40501;SDS011;29631;49.168;9.848;2022-08-07T04:53:11;0.70;;;0.70;;
40501;SDS011;29631;49.168;9.848;2022-08-07T04:55:49;0.68;;;0.68;;
40501;SDS011;29631;49.168;9.848;2022-08-07T05:04:14;0.63;;;0.63;;
40501;SDS011;29631;49.168;9.848;2022-08-07T05:06:55;10.40;;;1.42;;
40501;SDS011;29631;49.168;9.848;2022-08-07T05:09:38;1.05;;;0.90;;
40501;SDS011;29631;49.168;9.848;2022-08-07T05:12:22;2.35;;;0.88;;
40501;SDS011;29631;49.168;9.848;2022-08-07T05:15:04;0.80;;;0.75;;
40501;SDS011;29631;49.168;9.848;2022-08-07T05:17:47;0.85;;;0.85;;
40501;SDS011;29631;49.168;9.848;2022-08-07T05:20:18;0.80;;;0.80;;
40501;SDS011;29631;49.168;9.848;2022-08-07T05:23:00;0.80;;;0.80;;
40501;SDS011;29631;49.168;9.848;2022-08-07T05:25:35;0.85;;;0.77;;
40501;SDS011;29631;49.168;9.848;2022-08-07T05:28:03;1.67;;;0.85;;
40501;SDS011;29631;49.168;9.848;2022-08-07T05:30:30;0.80;;;0.80;;
40501;SDS011;29631;49.168;9.848;2022-08-07T05:32:58;1.00;;;0.98;;
40501;SDS011;29631;49.168;9.848;2022-08-07T05:35:27;0.70;;;0.60;;
40501;SDS011;29631;49.168;9.848;2022-08-07T05:37:57;0.73;;;0.73;;
40501;SDS011;29631;49.168;9.848;2022-08-07T05:40:24;1.00;;;1.00;;
40501;SDS011;29631;49.168;9.848;2022-08-07T05:42:50;0.77;;;0.77;;
40501;SDS011;29631;49.168;9.848;2022-08-07T05:45:17;1.08;;;0.90;;
40501;SDS011;29631;49.168;9.848;2022-08-07T05:47:44;0.93;;;0.80;;
40501;SDS011;29631;49.168;9.848;2022-08-07T05:50:11;0.80;;;0.80;;
40501;SDS011;29631;49.168;9.848;2022-08-07T05:52:38;0.90;;;0.90;;
40501;SDS011;29631;49.168;9.848;2022-08-07T05:55:04;0.80;;;0.80;;
40501;SDS011;29631;49.168;9.848;2022-08-07T05:57:32;0.85;;;0.85;;
40501;SDS011;29631;49.168;9.848;2022-08-07T06:00:01;0.80;;;0.80;;
40501;SDS011;29631;49.168;9.848;2022-08-07T06:02:30;0.70;;;0.70;;
40501;SDS011;29631;49.168;9.848;2022-08-07T06:05:01;0.93;;;0.90;;
40501;SDS011;29631;49.168;9.848;2022-08-07T06:07:32;0.90;;;0.80;;
40501;SDS011;29631;49.168;9.848;2022-08-07T06:09:58;0.80;;;0.70;;
40501;SDS011;29631;49.168;9.848;2022-08-07T06:12:25;0.82;;;0.80;;
40501;SDS011;29631;49.168;9.848;2022-08-07T06:14:51;1.00;;;0.90;;
40501;SDS011;29631;49.168;9.848;2022-08-07T06:17:18;0.80;;;0.80;;
40501;SDS011;29631;49.168;9.848;2022-08-07T06:19:44;0.70;;;0.70;;
40501;SDS011;29631;49.168;9.848;2022-08-07T06:22:10;0.80;;;0.80;;
40501;SDS011;29631;49.168;9.848;2022-08-07T06:24:37;0.70;;;0.70;;
40501;SDS011;29631;49.168;9.848;2022-08-07T06:27:03;0.80;;;0.80;;
40501;SDS011;29631;49.168;9.848;2022-08-07T06:29:29;0.68;;;0.68;;
40501;SDS011;29631;49.168;9.848;2022-08-07T06:31:57;0.80;;;0.80;;
40501;SDS011;29631;49.168;9.848;2022-08-07T06:34:24;0.90;;;0.90;;
40501;SDS011;29631;49.168;9.848;2022-08-07T06:36:51;1.40;;;0.70;;
40501;SDS011;29631;49.168;9.848;2022-08-07T06:39:18;0.90;;;0.90;;
40501;SDS011;29631;49.168;9.848;2022-08-07T06:41:48;0.80;;;0.80;;
40501;SDS011;29631;49.168;9.848;2022-08-07T06:44:30;1.17;;;0.70;;
40501;SDS011;29631;49.168;9.848;2022-08-07T06:46:56;1.23;;;0.80;;
40501;SDS011;29631;49.168;9.848;2022-08-07T06:49:22;0.70;;;0.70;;
40501;SDS011;29631;49.168;9.848;2022-08-07T06:51:48;2.67;;;0.90;;
40501;SDS011;29631;49.168;9.848;2022-08-07T06:54:15;0.90;;;0.90;;
40501;SDS011;29631;49.168;9.848;2022-08-07T06:56:43;1.10;;;1.00;;
40501;SDS011;29631;49.168;9.848;2022-08-07T06:59:28;0.70;;;0.70;;
40501;SDS011;29631;49.168;9.848;2022-08-07T07:01:59;0.70;;;0.70;;
40501;SDS011;29631;49.168;9.848;2022-08-07T07:04:26;0.88;;;0.88;;
40501;SDS011;29631;49.168;9.848;2022-08-07T07:06:55;0.70;;;0.70;;
40501;SDS011;29631;49.168;9.848;2022-08-07T07:11:57;1.27;;;0.75;;
40501;SDS011;29631;49.168;9.848;2022-08-07T07:14:36;6.75;;;0.85;;
40501;SDS011;29631;49.168;9.848;2022-08-07T07:19:59;0.75;;;0.60;;
40501;SDS011;29631;49.168;9.848;2022-08-07T07:22:32;0.63;;;0.63;;
40501;SDS011;29631;49.168;9.848;2022-08-07T07:24:59;0.80;;;0.80;;
40501;SDS011;29631;49.168;9.848;2022-08-07T07:27:28;0.90;;;0.90;;
40501;SDS011;29631;49.168;9.848;2022-08-07T07:29:57;0.77;;;0.70;;
40501;SDS011;29631;49.168;9.848;2022-08-07T07:32:26;0.82;;;0.82;;
40501;SDS011;29631;49.168;9.848;2022-08-07T07:34:58;0.93;;;0.80;;
40501;SDS011;29631;49.168;9.848;2022-08-07T07:37:26;0.80;;;0.80;;
40501;SDS011;29631;49.168;9.848;2022-08-07T07:39:55;0.60;;;0.60;;
40501;SDS011;29631;49.168;9.848;2022-08-07T07:42:26;0.82;;;0.70;;
40501;SDS011;29631;49.168;9.848;2022-08-07T07:44:52;1.52;;;0.70;;
40501;SDS011;29631;49.168;9.848;2022-08-07T07:47:19;1.20;;;0.77;;
40501;SDS011;29631;49.168;9.848;2022-08-07T07:49:50;0.60;;;0.60;;
40501;SDS011;29631;49.168;9.848;2022-08-07T07:52:17;2.20;;;0.60;;
40501;SDS011;29631;49.168;9.848;2022-08-07T07:54:47;0.70;;;0.70;;
40501;SDS011;29631;49.168;9.848;2022-08-07T07:57:14;0.80;;;0.80;;
40501;SDS011;29631;49.168;9.848;2022-08-07T07:59:45;0.80;;;0.80;;
40501;SDS011;29631;49.168;9.848;2022-08-07T08:02:14;2.65;;;0.75;;
40501;SDS011;29631;49.168;9.848;2022-08-07T08:04:43;1.45;;;0.70;;
40501;SDS011;29631;49.168;9.848;2022-08-07T08:07:10;1.48;;;0.80;;
40501;SDS011;29631;49.168;9.848;2022-08-07T08:09:38;0.88;;;0.80;;
40501;SDS011;29631;49.168;9.848;2022-08-07T08:12:05;0.70;;;0.70;;
40501;SDS011;29631;49.168;9.848;2022-08-07T08:14:32;0.70;;;0.70;;
40501;SDS011;29631;49.168;9.848;2022-08-07T08:17:00;0.70;;;0.70;;
40501;SDS011;29631;49.168;9.848;2022-08-07T08:19:29;0.70;;;0.70;;
40501;SDS011;29631;49.168;9.848;2022-08-07T08:21:57;0.65;;;0.65;;
40501;SDS011;29631;49.168;9.848;2022-08-07T08:24:44;0.98;;;0.70;;
40501;SDS011;29631;49.168;9.848;2022-08-07T08:27:33;0.75;;;0.75;;
40501;SDS011;29631;49.168;9.848;2022-08-07T08:30:08;0.85;;;0.63;;
40501;SDS011;29631;49.168;9.848;2022-08-07T08:32:40;0.70;;;0.70;;
40501;SDS011;29631;49.168;9.848;2022-08-07T08:35:12;0.70;;;0.70;;
40501;SDS011;29631;49.168;9.848;2022-08-07T08:37:44;0.80;;;0.77;;
40501;SDS011;29631;49.168;9.848;2022-08-07T08:40:17;0.70;;;0.70;;
40501;SDS011;29631;49.168;9.848;2022-08-07T08:43:14;2.92;;;0.68;;
40501;SDS011;29631;49.168;9.848;2022-08-07T08:51:28;0.60;;;0.60;;
40501;SDS011;29631;49.168;9.848;2022-08-07T08:54:03;0.60;;;0.60;;
40501;SDS011;29631;49.168;9.848;2022-08-07T08:56:35;0.60;;;0.60;;
40501;SDS011;29631;49.168;9.848;2022-08-07T08:59:07;1.65;;;0.70;;
40501;SDS011;29631;49.168;9.848;2022-08-07T09:01:55;0.75;;;0.70;;
40501;SDS011;29631;49.168;9.848;2022-08-07T09:05:06;0.70;;;0.70;;
40501;SDS011;29631;49.168;9.848;2022-08-07T09:07:47;0.60;;;0.60;;
40501;SDS011;29631;49.168;9.848;2022-08-07T09:10:45;1.15;;;0.68;;
40501;SDS011;29631;49.168;9.848;2022-08-07T09:13:39;0.60;;;0.60;;
40501;SDS011;29631;49.168;9.848;2022-08-07T09:19:53;0.57;;;0.55;;
40501;SDS011;29631;49.168;9.848;2022-08-07T09:28:18;0.60;;;0.60;;
40501;SDS011;29631;49.168;9.848;2022-08-07T09:31:01;0.63;;;0.60;;
40501;SDS011;29631;49.168;9.848;2022-08-07T09:34:14;0.93;;;0.60;;
40501;SDS011;29631;49.168;9.848;2022-08-07T09:36:56;0.50;;;0.50;;
40501;SDS011;29631;49.168;9.848;2022-08-07T09:39:45;1.02;;;0.60;;
40501;SDS011;29631;49.168;9.848;2022-08-07T09:45:23;0.40;;;0.40;;
40501;SDS011;29631;49.168;9.848;2022-08-07T09:48:11;2.78;;;0.70;;
40501;SDS011;29631;49.168;9.848;2022-08-07T09:51:05;0.60;;;0.60;;
40501;SDS011;29631;49.168;9.848;2022-08-07T09:54:05;0.50;;;0.50;;
40501;SDS011;29631;49.168;9.848;2022-08-07T09:57:05;0.60;;;0.60;;
40501;SDS011;29631;49.168;9.848;2022-08-07T10:00:23;0.65;;;0.65;;
40501;SDS011;29631;49.168;9.848;2022-08-07T10:11:44;0.50;;;0.50;;
40501;SDS011;29631;49.168;9.848;2022-08-07T10:28:46;1.15;;;0.60;;
40501;SDS011;29631;49.168;9.848;2022-08-07T10:40:47;0.75;;;0.75;;
40501;SDS011;29631;49.168;9.848;2022-08-07T10:43:38;0.60;;;0.60;;
40501;SDS011;29631;49.168;9.848;2022-08-07T10:50:23;1.70;;;0.70;;
40501;SDS011;29631;49.168;9.848;2022-08-07T10:56:31;0.50;;;0.50;;
40501;SDS011;29631;49.168;9.848;2022-08-07T11:05:08;0.95;;;0.60;;
40501;SDS011;29631;49.168;9.848;2022-08-07T11:11:09;0.70;;;0.70;;
40501;SDS011;29631;49.168;9.848;2022-08-07T11:13:58;0.60;;;0.60;;
40501;SDS011;29631;49.168;9.848;2022-08-07T11:19:37;1.95;;;0.68;;
40501;SDS011;29631;49.168;9.848;2022-08-07T11:25:24;0.50;;;0.50;;
40501;SDS011;29631;49.168;9.848;2022-08-07T11:28:08;0.45;;;0.45;;
40501;SDS011;29631;49.168;9.848;2022-08-07T11:36:37;0.50;;;0.50;;
40501;SDS011;29631;49.168;9.848;2022-08-07T11:43:11;0.75;;;0.75;;
40501;SDS011;29631;49.168;9.848;2022-08-07T11:51:14;0.55;;;0.55;;
40501;SDS011;29631;49.168;9.848;2022-08-07T12:00:18;0.50;;;0.50;;
40501;SDS011;29631;49.168;9.848;2022-08-07T12:06:11;0.63;;;0.63;;
40501;SDS011;29631;49.168;9.848;2022-08-07T12:08:58;0.60;;;0.60;;
40501;SDS011;29631;49.168;9.848;2022-08-07T12:14:32;0.60;;;0.60;;
40501;SDS011;29631;49.168;9.848;2022-08-07T12:17:16;0.60;;;0.60;;
40501;SDS011;29631;49.168;9.848;2022-08-07T12:28:19;0.77;;;0.60;;
40501;SDS011;29631;49.168;9.848;2022-08-07T12:31:28;0.60;;;0.60;;
40501;SDS011;29631;49.168;9.848;2022-08-07T12:34:05;0.55;;;0.55;;
40501;SDS011;29631;49.168;9.848;2022-08-07T12:36:32;0.70;;;0.70;;
40501;SDS011;29631;49.168;9.848;2022-08-07T12:39:01;0.70;;;0.70;;
40501;SDS011;29631;49.168;9.848;2022-08-07T12:41:29;2.65;;;0.70;;
40501;SDS011;29631;49.168;9.848;2022-08-07T12:43:59;0.80;;;0.80;;
40501;SDS011;29631;49.168;9.848;2022-08-07T12:52:12;0.50;;;0.50;;
40501;SDS011;29631;49.168;9.848;2022-08-07T12:54:50;0.75;;;0.70;;
40501;SDS011;29631;49.168;9.848;2022-08-07T12:57:31;0.90;;;0.70;;
40501;SDS011;29631;49.168;9.848;2022-08-07T13:00:03;0.75;;;0.60;;
40501;SDS011;29631;49.168;9.848;2022-08-07T13:08:47;0.70;;;0.70;;
40501;SDS011;29631;49.168;9.848;2022-08-07T13:11:46;0.63;;;0.63;;
40501;SDS011;29631;49.168;9.848;2022-08-07T13:23:06;0.80;;;0.80;;
40501;SDS011;29631;49.168;9.848;2022-08-07T13:26:21;0.75;;;0.75;;
40501;SDS011;29631;49.168;9.848;2022-08-07T13:28:49;0.60;;;0.60;;
40501;SDS011;29631;49.168;9.848;2022-08-07T13:32:01;0.50;;;0.50;;
40501;SDS011;29631;49.168;9.848;2022-08-07T13:34:39;0.75;;;0.70;;
40501;SDS011;29631;49.168;9.848;2022-08-07T13:40:27;0.60;;;0.60;;
40501;SDS011;29631;49.168;9.848;2022-08-07T13:43:01;0.68;;;0.68;;
40501;SDS011;29631;49.168;9.848;2022-08-07T13:45:31;1.67;;;1.58;;
40501;SDS011;29631;49.168;9.848;2022-08-07T13:48:00;1.02;;;1.02;;
40501;SDS011;29631;49.168;9.848;2022-08-07T13:50:29;0.80;;;0.80;;
40501;SDS011;29631;49.168;9.848;2022-08-07T13:52:56;0.85;;;0.70;;
40501;SDS011;29631;49.168;9.848;2022-08-07T13:55:23;0.60;;;0.60;;
40501;SDS011;29631;49.168;9.848;2022-08-07T13:58:06;0.68;;;0.68;;
40501;SDS011;29631;49.168;9.848;2022-08-07T14:00:54;0.68;;;0.68;;
40501;SDS011;29631;49.168;9.848;2022-08-07T14:03:33;0.63;;;0.60;;
40501;SDS011;29631;49.168;9.848;2022-08-07T14:06:04;0.80;;;0.80;;
40501;SDS011;29631;49.168;9.848;2022-08-07T14:08:30;0.73;;;0.65;;
40501;SDS011;29631;49.168;9.848;2022-08-07T14:10:57;0.60;;;0.60;;
40501;SDS011;29631;49.168;9.848;2022-08-07T14:13:28;2.88;;;0.70;;
40501;SDS011;29631;49.168;9.848;2022-08-07T14:15:58;1.80;;;0.60;;
40501;SDS011;29631;49.168;9.848;2022-08-07T14:18:52;0.52;;;0.52;;
40501;SDS011;29631;49.168;9.848;2022-08-07T14:21:21;0.60;;;0.60;;
40501;SDS011;29631;49.168;9.848;2022-08-07T14:23:55;0.60;;;0.60;;
40501;SDS011;29631;49.168;9.848;2022-08-07T14:26:28;1.05;;;0.93;;
40501;SDS011;29631;49.168;9.848;2022-08-07T14:29:09;0.60;;;0.60;;
40501;SDS011;29631;49.168;9.848;2022-08-07T14:31:37;0.70;;;0.70;;
40501;SDS011;29631;49.168;9.848;2022-08-07T14:34:05;0.60;;;0.60;;
40501;SDS011;29631;49.168;9.848;2022-08-07T14:36:32;0.85;;;0.63;;
40501;SDS011;29631;49.168;9.848;2022-08-07T14:39:00;0.60;;;0.60;;
40501;SDS011;29631;49.168;9.848;2022-08-07T14:41:29;0.80;;;0.70;;
40501;SDS011;29631;49.168;9.848;2022-08-07T14:43:58;0.52;;;0.50;;
40501;SDS011;29631;49.168;9.848;2022-08-07T14:46:30;0.60;;;0.60;;
40501;SDS011;29631;49.168;9.848;2022-08-07T14:48:56;0.60;;;0.60;;
40501;SDS011;29631;49.168;9.848;2022-08-07T14:51:25;0.70;;;0.70;;
40501;SDS011;29631;49.168;9.848;2022-08-07T14:53:54;0.50;;;0.50;;
40501;SDS011;29631;49.168;9.848;2022-08-07T14:56:25;0.70;;;0.70;;
40501;SDS011;29631;49.168;9.848;2022-08-07T14:58:55;0.98;;;0.70;;
40501;SDS011;29631;49.168;9.848;2022-08-07T15:01:27;0.65;;;0.50;;
40501;SDS011;29631;49.168;9.848;2022-08-07T15:04:00;0.75;;;0.70;;
40501;SDS011;29631;49.168;9.848;2022-08-07T15:06:31;0.57;;;0.57;;
40501;SDS011;29631;49.168;9.848;2022-08-07T15:09:04;0.80;;;0.77;;
40501;SDS011;29631;49.168;9.848;2022-08-07T15:11:46;1.65;;;0.70;;
40501;SDS011;29631;49.168;9.848;2022-08-07T15:14:21;2.15;;;0.63;;
40501;SDS011;29631;49.168;9.848;2022-08-07T15:16:53;0.68;;;0.55;;
40501;SDS011;29631;49.168;9.848;2022-08-07T15:19:28;0.68;;;0.60;;
40501;SDS011;29631;49.168;9.848;2022-08-07T15:21:59;0.85;;;0.60;;
40501;SDS011;29631;49.168;9.848;2022-08-07T15:24:29;0.60;;;0.60;;
40501;SDS011;29631;49.168;9.848;2022-08-07T15:27:05;1.80;;;0.50;;
40501;SDS011;29631;49.168;9.848;2022-08-07T15:29:39;0.70;;;0.70;;
40501;SDS011;29631;49.168;9.848;2022-08-07T15:32:08;0.65;;;0.65;;
40501;SDS011;29631;49.168;9.848;2022-08-07T15:34:35;0.60;;;0.57;;
40501;SDS011;29631;49.168;9.848;2022-08-07T15:37:07;0.60;;;0.60;;
40501;SDS011;29631;49.168;9.848;2022-08-07T15:39:35;3.47;;;0.80;;
40501;SDS011;29631;49.168;9.848;2022-08-07T15:42:05;0.70;;;0.70;;
40501;SDS011;29631;49.168;9.848;2022-08-07T15:44:45;0.70;;;0.70;;
40501;SDS011;29631;49.168;9.848;2022-08-07T15:47:13;0.73;;;0.73;;
40501;SDS011;29631;49.168;9.848;2022-08-07T15:49:42;0.50;;;0.50;;
40501;SDS011;29631;49.168;9.848;2022-08-07T15:52:13;0.82;;;0.60;;
40501;SDS011;29631;49.168;9.848;2022-08-07T15:54:44;0.60;;;0.60;;
40501;SDS011;29631;49.168;9.848;2022-08-07T15:57:14;0.63;;;0.50;;
40501;SDS011;29631;49.168;9.848;2022-08-07T15:59:48;0.70;;;0.70;;
40501;SDS011;29631;49.168;9.848;2022-08-07T16:02:21;0.88;;;0.60;;
40501;SDS011;29631;49.168;9.848;2022-08-07T16:04:58;0.95;;;0.60;;
40501;SDS011;29631;49.168;9.848;2022-08-07T16:07:38;0.98;;;0.70;;
40501;SDS011;29631;49.168;9.848;2022-08-07T16:10:12;0.60;;;0.60;;
40501;SDS011;29631;49.168;9.848;2022-08-07T16:16:31;0.60;;;0.60;;
40501;SDS011;29631;49.168;9.848;2022-08-07T16:22:34;0.77;;;0.77;;
40501;SDS011;29631;49.168;9.848;2022-08-07T16:31:40;0.50;;;0.50;;
40501;SDS011;29631;49.168;9.848;2022-08-07T16:38:17;0.60;;;0.60;;
40501;SDS011;29631;49.168;9.848;2022-08-07T16:40:56;0.60;;;0.60;;
40501;SDS011;29631;49.168;9.848;2022-08-07T16:47:05;0.75;;;0.75;;
40501;SDS011;29631;49.168;9.848;2022-08-07T16:50:53;0.68;;;0.68;;
40501;SDS011;29631;49.168;9.848;2022-08-07T16:53:51;0.60;;;0.60;;
40501;SDS011;29631;49.168;9.848;2022-08-07T17:02:00;0.80;;;0.80;;
40501;SDS011;29631;49.168;9.848;2022-08-07T17:04:50;0.63;;;0.63;;
40501;SDS011;29631;49.168;9.848;2022-08-07T17:07:59;0.77;;;0.77;;
40501;SDS011;29631;49.168;9.848;2022-08-07T17:16:16;1.10;;;0.60;;
40501;SDS011;29631;49.168;9.848;2022-08-07T17:19:00;0.70;;;0.70;;
40501;SDS011;29631;49.168;9.848;2022-08-07T17:21:44;0.80;;;0.80;;
40501;SDS011;29631;49.168;9.848;2022-08-07T17:30:41;0.60;;;0.60;;
40501;SDS011;29631;49.168;9.848;2022-08-07T17:33:17;1.05;;;0.70;;
40501;SDS011;29631;49.168;9.848;2022-08-07T17:39:03;0.70;;;0.70;;
40501;SDS011;29631;49.168;9.848;2022-08-07T17:41:54;0.70;;;0.70;;
40501;SDS011;29631;49.168;9.848;2022-08-07T17:47:12;1.23;;;0.60;;
40501;SDS011;29631;49.168;9.848;2022-08-07T17:50:01;1.10;;;1.00;;
40501;SDS011;29631;49.168;9.848;2022-08-07T17:52:45;0.98;;;0.88;;
40501;SDS011;29631;49.168;9.848;2022-08-07T17:55:31;0.80;;;0.80;;
40501;SDS011;29631;49.168;9.848;2022-08-07T17:58:16;0.80;;;0.80;;
40501;SDS011;29631;49.168;9.848;2022-08-07T18:01:09;0.80;;;0.80;;
40501;SDS011;29631;49.168;9.848;2022-08-07T18:03:46;1.08;;;1.08;;
40501;SDS011;29631;49.168;9.848;2022-08-07T18:06:35;1.30;;;1.20;;
40501;SDS011;29631;49.168;9.848;2022-08-07T18:09:11;1.52;;;1.42;;
40501;SDS011;29631;49.168;9.848;2022-08-07T18:14:40;1.73;;;1.63;;
40501;SDS011;29631;49.168;9.848;2022-08-07T18:17:32;1.92;;;1.83;;
40501;SDS011;29631;49.168;9.848;2022-08-07T18:20:07;2.35;;;1.80;;
40501;SDS011;29631;49.168;9.848;2022-08-07T18:22:40;1.45;;;1.35;;
40501;SDS011;29631;49.168;9.848;2022-08-07T18:25:21;1.48;;;1.40;;
40501;SDS011;29631;49.168;9.848;2022-08-07T18:27:58;1.00;;;1.00;;
40501;SDS011;29631;49.168;9.848;2022-08-07T18:36:38;1.00;;;0.80;;
40501;SDS011;29631;49.168;9.848;2022-08-07T18:39:38;1.17;;;1.17;;
40501;SDS011;29631;49.168;9.848;2022-08-07T18:42:24;1.45;;;1.00;;
40501;SDS011;29631;49.168;9.848;2022-08-07T18:45:19;1.05;;;1.00;;